createdAt,value
2022-11-15T00:01:34.900Z,1.27
2022-11-15T00:04:02.857Z,1.10
2022-11-15T00:06:30.711Z,1.17
2022-11-15T00:09:00.116Z,0.67
2022-11-15T00:11:28.038Z,1.20
2022-11-15T00:13:57.180Z,0.90
2022-11-15T00:16:26.463Z,1.30
2022-11-15T00:18:54.309Z,1.00
2022-11-15T00:21:22.252Z,0.67
2022-11-15T00:23:50.234Z,0.70
2022-11-15T00:26:18.684Z,0.80
2022-11-15T00:28:46.756Z,0.87
2022-11-15T00:31:15.519Z,0.50
2022-11-15T00:33:46.627Z,0.70
2022-11-15T00:36:14.536Z,0.70
2022-11-15T00:38:42.432Z,0.93
2022-11-15T00:41:10.614Z,0.70
2022-11-15T00:43:38.522Z,0.53
2022-11-15T00:46:06.550Z,0.73
2022-11-15T00:48:34.432Z,0.47
2022-11-15T00:51:03.645Z,0.60
2022-11-15T00:53:31.844Z,0.70
2022-11-15T00:55:59.907Z,0.77
2022-11-15T00:58:27.780Z,0.70
2022-11-15T01:00:55.882Z,0.50
2022-11-15T01:03:23.804Z,0.80
2022-11-15T01:05:51.709Z,0.53
2022-11-15T01:08:20.958Z,0.70
2022-11-15T01:10:48.879Z,0.50
2022-11-15T01:13:16.723Z,0.60
2022-11-15T01:15:44.613Z,0.70
2022-11-15T01:18:12.543Z,0.60
2022-11-15T01:20:42.802Z,0.60
2022-11-15T01:23:10.748Z,0.60
2022-11-15T01:25:40.053Z,0.60
2022-11-15T01:28:08.014Z,0.77
2022-11-15T01:30:35.924Z,0.60
2022-11-15T01:33:03.799Z,0.50
2022-11-15T01:35:31.652Z,0.47
2022-11-15T01:37:59.536Z,0.37
2022-11-15T01:40:27.388Z,0.37
2022-11-15T01:42:56.688Z,0.50
2022-11-15T01:45:24.934Z,0.43
2022-11-15T01:47:53.704Z,0.50
2022-11-15T01:50:23.111Z,0.57
2022-11-15T01:52:51.057Z,0.50
2022-11-15T01:55:20.862Z,0.73
2022-11-15T01:57:49.633Z,0.50
2022-11-15T02:00:19.135Z,0.50
2022-11-15T02:02:47.139Z,0.40
2022-11-15T02:05:15.097Z,0.53
2022-11-15T02:07:42.971Z,0.43
2022-11-15T02:10:11.960Z,0.50
2022-11-15T02:12:39.844Z,0.30
2022-11-15T02:15:08.475Z,0.50
2022-11-15T02:17:48.264Z,0.50
2022-11-15T02:20:52.630Z,0.50
2022-11-15T02:24:00.428Z,0.43
2022-11-15T02:26:45.407Z,0.60
2022-11-15T02:29:14.326Z,0.50
2022-11-15T02:31:46.482Z,0.50
2022-11-15T02:34:18.121Z,0.67
2022-11-15T02:36:48.685Z,0.40
2022-11-15T02:39:20.196Z,0.60
2022-11-15T02:41:50.171Z,0.40
2022-11-15T02:44:18.847Z,0.40
2022-11-15T02:47:07.243Z,0.30
2022-11-15T02:49:35.982Z,0.40
2022-11-15T02:52:03.874Z,0.40
2022-11-15T02:54:32.472Z,0.50
2022-11-15T02:57:02.838Z,0.40
2022-11-15T02:59:46.028Z,0.43
2022-11-15T03:02:21.044Z,0.30
2022-11-15T03:04:53.356Z,0.50
2022-11-15T03:07:22.986Z,0.40
2022-11-15T03:09:52.860Z,0.43
2022-11-15T03:12:24.210Z,0.50
2022-11-15T03:14:53.807Z,0.30
2022-11-15T03:17:25.580Z,0.47
2022-11-15T03:19:54.742Z,0.40
2022-11-15T03:22:23.831Z,0.50
2022-11-15T03:24:54.264Z,0.40
2022-11-15T03:27:23.221Z,0.50
2022-11-15T03:29:52.939Z,0.40
2022-11-15T03:32:25.800Z,0.40
2022-11-15T03:34:55.476Z,0.30
2022-11-15T03:37:25.181Z,0.57
2022-11-15T03:39:53.128Z,0.50
2022-11-15T03:42:23.985Z,0.40
2022-11-15T03:44:54.933Z,0.40
2022-11-15T03:47:25.920Z,0.40
2022-11-15T03:49:55.354Z,0.50
2022-11-15T03:52:23.592Z,0.30
2022-11-15T03:54:55.772Z,0.30
2022-11-15T03:57:23.795Z,0.30
2022-11-15T03:59:51.659Z,0.50
2022-11-15T04:02:19.641Z,0.40
2022-11-15T04:04:48.863Z,0.30
2022-11-15T04:07:16.832Z,0.30
2022-11-15T04:09:58.912Z,0.40
2022-11-15T04:12:32.646Z,0.47
2022-11-15T04:15:10.990Z,0.70
2022-11-15T04:17:40.367Z,0.43
2022-11-15T04:20:29.217Z,0.50
2022-11-15T04:23:15.125Z,0.23
2022-11-15T04:25:43.305Z,0.30
2022-11-15T04:28:11.175Z,0.43
2022-11-15T04:30:39.091Z,0.30
2022-11-15T04:33:06.963Z,0.53
2022-11-15T04:35:36.245Z,0.50
2022-11-15T04:38:04.399Z,0.37
2022-11-15T04:40:32.351Z,0.40
2022-11-15T04:43:03.875Z,0.40
2022-11-15T04:45:32.183Z,0.70
2022-11-15T04:48:00.168Z,0.87
2022-11-15T04:50:28.061Z,1.33
2022-11-15T04:52:57.355Z,1.10
2022-11-15T04:55:25.235Z,0.83
2022-11-15T04:58:00.609Z,0.97
2022-11-15T05:00:28.714Z,0.73
2022-11-15T05:03:14.030Z,0.80
2022-11-15T05:05:41.957Z,0.93
2022-11-15T05:08:11.210Z,0.70
2022-11-15T05:10:39.168Z,1.17
2022-11-15T05:13:07.109Z,0.83
2022-11-15T05:15:35.070Z,1.20
2022-11-15T05:18:02.985Z,1.03
2022-11-15T05:20:30.847Z,1.00
2022-11-15T05:22:58.710Z,1.20
2022-11-15T05:25:28.091Z,1.13
2022-11-15T05:27:55.986Z,1.10
2022-11-15T05:30:23.880Z,1.30
2022-11-15T05:32:51.783Z,1.30
2022-11-15T05:35:22.405Z,1.43
2022-11-15T05:37:50.378Z,1.40
2022-11-15T05:40:18.479Z,1.70
2022-11-15T05:42:51.187Z,1.53
2022-11-15T05:45:23.901Z,1.50
2022-11-15T05:47:54.548Z,1.20
2022-11-15T05:50:22.393Z,1.43
2022-11-15T05:52:50.404Z,1.20
2022-11-15T05:55:18.322Z,1.50
2022-11-15T05:57:46.509Z,1.37
2022-11-15T06:00:16.402Z,1.20
2022-11-15T06:02:44.385Z,1.47
2022-11-15T06:05:12.430Z,2.23
2022-11-15T06:07:40.353Z,1.43
2022-11-15T06:10:09.678Z,1.50
2022-11-15T06:12:37.611Z,1.73
2022-11-15T06:15:06.052Z,2.13
2022-11-15T06:17:35.600Z,2.10
2022-11-15T06:20:04.437Z,1.70
2022-11-15T06:22:32.277Z,1.50
2022-11-15T06:25:05.216Z,2.30
2022-11-15T06:27:33.515Z,2.00
2022-11-15T06:30:01.370Z,2.17
2022-11-15T06:32:30.803Z,2.03
2022-11-15T06:35:00.095Z,2.33
2022-11-15T06:37:28.721Z,1.97
2022-11-15T06:39:56.639Z,2.10
2022-11-15T06:42:24.625Z,2.23
2022-11-15T06:44:52.640Z,2.27
2022-11-15T06:47:20.537Z,2.00
2022-11-15T06:49:48.508Z,2.00
2022-11-15T06:52:19.475Z,1.80
2022-11-15T06:54:47.400Z,1.70
2022-11-15T06:57:15.289Z,2.73
2022-11-15T06:59:43.226Z,1.93
2022-11-15T07:02:14.392Z,2.57
2022-11-15T07:04:42.269Z,2.07
2022-11-15T07:07:10.221Z,2.63
2022-11-15T07:09:39.558Z,2.10
2022-11-15T07:12:08.165Z,2.80
2022-11-15T07:14:36.362Z,2.23
2022-11-15T07:17:05.701Z,2.77
2022-11-15T07:19:33.642Z,2.77
2022-11-15T07:22:01.800Z,2.27
2022-11-15T07:24:29.721Z,2.00
2022-11-15T07:26:59.490Z,2.43
2022-11-15T07:29:27.726Z,2.40
2022-11-15T07:31:56.006Z,1.97
2022-11-15T07:34:24.731Z,2.23
2022-11-15T07:36:52.775Z,2.43
2022-11-15T07:39:21.057Z,2.13
2022-11-15T07:41:50.695Z,2.53
2022-11-15T07:44:20.032Z,2.63
2022-11-15T07:46:50.664Z,3.00
2022-11-15T07:49:18.648Z,2.47
2022-11-15T07:51:49.935Z,2.27
2022-11-15T07:54:17.979Z,2.60
2022-11-15T07:56:45.949Z,2.43
2022-11-15T07:59:13.888Z,2.70
2022-11-15T08:01:43.212Z,2.90
2022-11-15T08:04:12.544Z,3.60
2022-11-15T08:06:40.451Z,3.87
2022-11-15T08:09:08.322Z,2.50
2022-11-15T08:11:36.783Z,1.97
2022-11-15T08:14:04.768Z,2.30
2022-11-15T08:16:33.233Z,2.20
2022-11-15T08:19:02.476Z,1.57
2022-11-15T08:21:30.417Z,2.00
2022-11-15T08:23:58.687Z,1.93
2022-11-15T08:26:30.092Z,2.50
2022-11-15T08:28:57.976Z,2.07
2022-11-15T08:31:25.850Z,2.20
2022-11-15T08:33:53.767Z,2.27
2022-11-15T08:36:23.047Z,1.97
2022-11-15T08:38:50.964Z,1.70
2022-11-15T08:41:22.317Z,2.20
2022-11-15T08:43:50.461Z,2.03
2022-11-15T08:46:19.335Z,2.30
2022-11-15T08:48:47.332Z,1.83
2022-11-15T08:51:15.747Z,2.00
2022-11-15T08:53:45.148Z,1.83
2022-11-15T08:56:13.856Z,2.70
2022-11-15T08:58:41.882Z,2.23
2022-11-15T09:01:18.735Z,3.87
2022-11-15T09:03:47.287Z,3.00
2022-11-15T09:06:15.877Z,1.57
2022-11-15T09:08:47.793Z,1.73
2022-11-15T09:11:17.576Z,2.30
2022-11-15T09:13:45.519Z,4.30
2022-11-15T09:16:13.983Z,2.57
2022-11-15T09:18:41.879Z,1.97
2022-11-15T09:21:10.196Z,1.93
2022-11-15T09:23:38.362Z,1.80
2022-11-15T09:26:07.816Z,1.67
2022-11-15T09:28:36.479Z,1.97
2022-11-15T09:31:06.164Z,1.70
2022-11-15T09:33:34.727Z,1.80
2022-11-15T09:36:03.468Z,1.80
2022-11-15T09:38:31.562Z,2.07
2022-11-15T09:41:15.401Z,1.93
2022-11-15T09:43:46.446Z,2.17
2022-11-15T09:46:17.069Z,2.23
2022-11-15T09:48:53.917Z,2.60
2022-11-15T09:51:30.608Z,2.73
2022-11-15T09:56:52.118Z,2.00
2022-11-15T09:59:30.155Z,1.80
2022-11-15T10:02:01.785Z,1.37
2022-11-15T10:04:29.857Z,1.60
2022-11-15T10:07:03.147Z,1.77
2022-11-15T10:09:33.161Z,2.20
2022-11-15T10:12:02.469Z,1.40
2022-11-15T10:14:31.387Z,1.70
2022-11-15T10:17:19.795Z,2.33
2022-11-15T10:19:55.747Z,1.50
2022-11-15T10:22:35.817Z,1.87
2022-11-15T10:25:14.820Z,1.93
2022-11-15T10:27:44.367Z,2.10
2022-11-15T10:30:16.062Z,3.53
2022-11-15T10:32:44.829Z,1.67
2022-11-15T10:35:22.744Z,2.80
2022-11-15T10:37:50.640Z,2.20
2022-11-15T10:40:20.667Z,2.00
2022-11-15T10:42:49.988Z,2.03
2022-11-15T10:45:29.057Z,2.00
2022-11-15T10:48:17.299Z,1.70
2022-11-15T10:50:45.831Z,2.00
2022-11-15T10:53:16.329Z,1.90
2022-11-15T10:55:44.242Z,2.07
2022-11-15T10:58:22.820Z,2.10
2022-11-15T11:00:50.826Z,2.00
2022-11-15T11:03:31.474Z,1.93
2022-11-15T11:06:07.152Z,2.50
2022-11-15T11:08:35.129Z,2.10
2022-11-15T11:11:04.159Z,1.90
2022-11-15T11:13:34.719Z,1.53
2022-11-15T11:16:12.869Z,2.27
2022-11-15T11:18:43.955Z,2.20
2022-11-15T11:21:13.663Z,2.03
2022-11-15T11:23:47.503Z,1.83
2022-11-15T11:26:28.148Z,2.97
2022-11-15T11:29:01.857Z,2.63
2022-11-15T11:31:32.056Z,2.20
2022-11-15T11:34:05.294Z,1.80
2022-11-15T11:36:39.500Z,2.03
2022-11-15T11:39:18.844Z,1.67
2022-11-15T11:41:53.739Z,1.90
2022-11-15T11:44:30.829Z,2.30
2022-11-15T11:47:01.640Z,2.03
2022-11-15T11:49:33.164Z,2.20
2022-11-15T11:52:04.556Z,1.97
2022-11-15T11:54:36.956Z,1.93
2022-11-15T11:57:05.432Z,1.97
2022-11-15T11:59:38.787Z,2.00
2022-11-15T12:02:14.513Z,2.07
2022-11-15T12:04:42.917Z,2.13
2022-11-15T12:07:13.654Z,2.07
2022-11-15T12:09:43.663Z,2.67
2022-11-15T12:12:13.605Z,2.20
2022-11-15T12:14:45.680Z,2.40
2022-11-15T12:17:14.018Z,2.23
2022-11-15T12:19:43.737Z,2.50
2022-11-15T12:22:14.680Z,2.40
2022-11-15T12:24:44.031Z,2.10
2022-11-15T12:27:21.979Z,2.00
2022-11-15T12:29:56.670Z,2.73
2022-11-15T12:32:28.385Z,2.37
2022-11-15T12:34:56.262Z,2.03
2022-11-15T12:37:56.275Z,1.90
2022-11-15T12:40:31.265Z,2.10
2022-11-15T12:43:27.001Z,1.93
2022-11-15T12:45:56.302Z,2.27
2022-11-15T12:48:52.844Z,2.33
2022-11-15T12:51:22.850Z,1.80
2022-11-15T12:53:50.767Z,2.23
2022-11-15T12:56:25.436Z,2.03
2022-11-15T12:58:57.883Z,2.20
2022-11-15T13:02:02.350Z,2.00
2022-11-15T13:04:33.021Z,2.50
2022-11-15T13:07:02.378Z,2.30
2022-11-15T13:09:56.052Z,2.50
2022-11-15T13:12:58.396Z,2.60
2022-11-15T13:15:43.002Z,2.93
2022-11-15T13:18:41.438Z,2.43
2022-11-15T13:21:42.242Z,2.60
2022-11-15T13:24:14.866Z,2.40
2022-11-15T13:26:42.806Z,2.17
2022-11-15T13:29:18.375Z,2.10
2022-11-15T13:31:46.292Z,2.30
2022-11-15T13:37:29.499Z,1.90
2022-11-15T13:39:58.138Z,2.43
2022-11-15T13:42:28.770Z,2.23
2022-11-15T13:44:57.296Z,2.13
2022-11-15T13:47:27.822Z,1.93
2022-11-15T13:49:55.742Z,2.20
2022-11-15T13:52:25.135Z,3.80
2022-11-15T13:54:55.707Z,1.57
2022-11-15T13:57:24.127Z,1.40
2022-11-15T13:59:53.046Z,1.90
2022-11-15T14:02:21.818Z,2.50
2022-11-15T14:04:52.612Z,1.87
2022-11-15T14:07:21.975Z,2.40
2022-11-15T14:09:51.347Z,1.67
2022-11-15T14:12:31.401Z,2.90
2022-11-15T14:14:59.485Z,2.20
2022-11-15T14:17:45.686Z,1.77
2022-11-15T14:20:28.974Z,1.87
2022-11-15T14:22:57.554Z,2.70
2022-11-15T14:25:27.005Z,3.60
2022-11-15T14:28:18.151Z,2.50
2022-11-15T14:30:48.207Z,1.70
2022-11-15T14:33:24.410Z,1.50
2022-11-15T14:35:52.719Z,1.60
2022-11-15T14:38:20.684Z,1.57
2022-11-15T14:40:49.955Z,1.57
2022-11-15T14:43:17.876Z,1.33
2022-11-15T14:45:45.790Z,1.37
2022-11-15T14:48:13.698Z,1.40
2022-11-15T14:50:41.691Z,1.27
2022-11-15T14:53:13.949Z,1.20
2022-11-15T14:55:41.883Z,1.20
2022-11-15T14:58:11.172Z,3.90
2022-11-15T15:00:39.624Z,1.83
2022-11-15T15:03:07.895Z,1.43
2022-11-15T15:05:36.791Z,1.43
2022-11-15T15:08:04.780Z,2.00
2022-11-15T15:10:42.549Z,1.20
2022-11-15T15:13:17.783Z,1.77
2022-11-15T15:15:45.889Z,1.37
2022-11-15T15:18:14.281Z,1.70
2022-11-15T15:20:42.832Z,1.30
2022-11-15T15:23:16.096Z,1.10
2022-11-15T15:25:44.659Z,1.60
2022-11-15T15:28:13.977Z,1.77
2022-11-15T15:30:41.949Z,1.83
2022-11-15T15:33:09.823Z,1.20
2022-11-15T15:35:37.883Z,1.20
2022-11-15T15:38:06.063Z,1.47
2022-11-15T15:40:34.842Z,1.57
2022-11-15T15:43:02.819Z,1.37
2022-11-15T15:45:32.084Z,1.70
2022-11-15T15:47:59.981Z,2.20
2022-11-15T15:50:28.842Z,1.53
2022-11-15T15:52:57.489Z,2.40
2022-11-15T15:55:25.756Z,3.20
2022-11-15T15:57:53.769Z,3.70
2022-11-15T16:00:22.366Z,4.17
2022-11-15T16:02:51.711Z,4.23
2022-11-15T16:05:19.580Z,5.40
2022-11-15T16:07:48.601Z,4.00
2022-11-15T16:10:19.446Z,4.27
2022-11-15T16:12:48.417Z,6.20
2022-11-15T16:15:16.459Z,6.87
2022-11-15T16:17:46.682Z,4.20
2022-11-15T16:20:24.708Z,2.73
2022-11-15T16:22:52.607Z,2.20
2022-11-15T16:25:20.566Z,1.70
2022-11-15T16:27:48.434Z,2.53
2022-11-15T16:30:17.055Z,2.10
2022-11-15T16:32:45.070Z,4.40
2022-11-15T16:35:17.118Z,3.03
2022-11-15T16:37:47.275Z,3.90
2022-11-15T16:40:27.796Z,3.07
2022-11-15T16:42:56.586Z,2.87
2022-11-15T16:45:24.668Z,2.37
2022-11-15T16:47:52.756Z,1.90
2022-11-15T16:50:24.165Z,2.23
2022-11-15T16:52:57.769Z,2.70
2022-11-15T16:55:27.903Z,2.30
2022-11-15T16:57:58.039Z,2.60
2022-11-15T17:00:26.447Z,3.00
2022-11-15T17:02:54.406Z,4.60
2022-11-15T17:05:23.336Z,2.83
2022-11-15T17:07:54.290Z,3.27
2022-11-15T17:10:23.906Z,4.13
2022-11-15T17:12:52.070Z,3.20
2022-11-15T17:15:20.044Z,3.40
2022-11-15T17:17:52.679Z,4.37
2022-11-15T17:20:21.282Z,4.53
2022-11-15T17:22:49.198Z,5.50
2022-11-15T17:25:17.484Z,3.20
2022-11-15T17:27:47.234Z,10.77
2022-11-15T17:30:16.168Z,8.40
2022-11-15T17:32:48.142Z,4.30
2022-11-15T17:35:16.214Z,3.97
2022-11-15T17:37:45.416Z,4.33
2022-11-15T17:40:13.629Z,6.50
2022-11-15T17:42:45.568Z,6.77
2022-11-15T17:45:18.220Z,2.80
2022-11-15T17:47:46.117Z,4.33
2022-11-15T17:50:14.105Z,3.03
2022-11-15T17:52:42.003Z,5.50
2022-11-15T17:55:10.862Z,4.10
2022-11-15T17:57:38.833Z,3.20
2022-11-15T18:00:07.784Z,3.20
2022-11-15T18:02:37.104Z,3.10
2022-11-15T18:05:05.519Z,3.10
2022-11-15T18:07:33.495Z,3.13
2022-11-15T18:10:01.451Z,2.97
2022-11-15T18:12:29.497Z,2.70
2022-11-15T18:14:58.060Z,2.70
2022-11-15T18:17:25.962Z,2.77
2022-11-15T18:19:55.407Z,2.07
2022-11-15T18:22:23.522Z,2.33
2022-11-15T18:24:51.633Z,3.80
2022-11-15T18:27:19.557Z,6.20
2022-11-15T18:29:47.397Z,5.13
2022-11-15T18:32:17.712Z,4.30
2022-11-15T18:34:45.707Z,4.67
2022-11-15T18:37:15.515Z,4.10
2022-11-15T18:39:43.365Z,3.87
2022-11-15T18:42:11.301Z,3.60
2022-11-15T18:44:39.253Z,4.00
2022-11-15T18:47:07.169Z,2.87
2022-11-15T18:49:35.110Z,3.50
2022-11-15T18:52:03.021Z,2.90
2022-11-15T18:54:32.311Z,2.80
2022-11-15T18:57:00.314Z,3.93
2022-11-15T18:59:29.033Z,2.83
2022-11-15T19:01:57.121Z,2.40
2022-11-15T19:04:25.051Z,2.30
2022-11-15T19:06:53.590Z,2.20
2022-11-15T19:09:21.599Z,1.50
2022-11-15T19:11:52.194Z,2.17
2022-11-15T19:14:24.222Z,3.60
2022-11-15T19:16:53.046Z,3.23
2022-11-15T19:19:21.789Z,2.63
2022-11-15T19:21:49.826Z,2.80
2022-11-15T19:24:17.765Z,2.10
2022-11-15T19:26:46.059Z,3.30
2022-11-15T19:29:15.395Z,3.20
2022-11-15T19:31:43.355Z,2.23
2022-11-15T19:34:11.481Z,2.13
2022-11-15T19:36:40.422Z,2.73
2022-11-15T19:39:10.061Z,2.80
2022-11-15T19:41:39.660Z,2.43
2022-11-15T19:44:07.648Z,1.43
2022-11-15T19:46:38.255Z,1.70
2022-11-15T19:49:07.214Z,2.27
2022-11-15T19:51:35.224Z,2.33
2022-11-15T19:54:06.530Z,2.03
2022-11-15T19:56:35.028Z,2.00
2022-11-15T19:59:03.324Z,2.30
2022-11-15T20:01:32.213Z,2.20
2022-11-15T20:04:01.798Z,4.90
2022-11-15T20:06:30.961Z,11.23
2022-11-15T20:08:58.955Z,5.30
2022-11-15T20:11:27.016Z,3.53
2022-11-15T20:13:57.666Z,2.90
2022-11-15T20:16:25.632Z,6.80
2022-11-15T20:18:53.890Z,7.50
2022-11-15T20:21:23.217Z,3.60
2022-11-15T20:23:51.906Z,6.20
2022-11-15T20:26:19.911Z,7.33
2022-11-15T20:28:48.145Z,6.70
2022-11-15T20:31:16.333Z,7.90
2022-11-15T20:33:44.275Z,5.07
2022-11-15T20:36:13.314Z,4.40
2022-11-15T20:38:43.449Z,7.27
2022-11-15T20:41:11.565Z,8.57
2022-11-15T20:43:41.696Z,5.97
2022-11-15T20:46:09.641Z,3.27
2022-11-15T20:48:38.257Z,4.00
2022-11-15T20:51:07.311Z,5.83
2022-11-15T20:53:35.390Z,6.27
2022-11-15T20:56:09.594Z,4.57
2022-11-15T20:58:37.855Z,3.00
2022-11-15T21:01:11.336Z,2.23
2022-11-15T21:03:39.323Z,2.20
2022-11-15T21:06:08.136Z,2.50
2022-11-15T21:08:49.927Z,1.60
2022-11-15T21:11:36.582Z,2.30
2022-11-15T21:14:09.044Z,2.03
2022-11-15T21:16:37.644Z,2.50
2022-11-15T21:19:06.685Z,2.50
2022-11-15T21:21:34.665Z,1.80
2022-11-15T21:24:03.850Z,1.50
2022-11-15T21:26:33.217Z,1.80
2022-11-15T21:29:01.140Z,1.70
2022-11-15T21:31:29.133Z,1.27
2022-11-15T21:33:57.043Z,1.80
2022-11-15T21:36:25.559Z,1.87
2022-11-15T21:38:53.760Z,3.27
2022-11-15T21:41:21.825Z,2.03
2022-11-15T21:43:51.716Z,4.27
2022-11-15T21:46:19.624Z,2.77
2022-11-15T21:48:47.552Z,2.33
2022-11-15T21:51:15.427Z,1.80
2022-11-15T21:53:43.319Z,2.20
2022-11-15T21:56:11.953Z,1.53
2022-11-15T21:58:40.668Z,1.70
2022-11-15T22:01:28.964Z,1.40
2022-11-15T22:03:56.994Z,1.20
2022-11-15T22:06:25.281Z,1.40
2022-11-15T22:08:53.166Z,1.73
2022-11-15T22:11:21.113Z,1.57
2022-11-15T22:13:49.006Z,1.70
2022-11-15T22:16:18.273Z,1.50
2022-11-15T22:18:46.341Z,1.47
2022-11-15T22:21:15.067Z,1.50
2022-11-15T22:23:43.431Z,1.47
2022-11-15T22:26:12.418Z,1.30
2022-11-15T22:28:40.365Z,1.30
2022-11-15T22:31:08.415Z,1.63
2022-11-15T22:33:37.779Z,1.10
2022-11-15T22:36:06.312Z,1.63
2022-11-15T22:38:34.713Z,1.20
2022-11-15T22:41:02.867Z,0.97
2022-11-15T22:43:30.825Z,0.80
2022-11-15T22:45:59.392Z,0.73
2022-11-15T22:48:28.199Z,0.80
2022-11-15T22:50:57.523Z,1.20
2022-11-15T22:53:25.439Z,1.00
2022-11-15T22:55:53.489Z,0.80
2022-11-15T22:58:21.564Z,0.70
2022-11-15T23:00:50.809Z,0.90
2022-11-15T23:03:19.304Z,1.00
2022-11-15T23:05:47.371Z,0.90
2022-11-15T23:08:16.649Z,1.23
2022-11-15T23:11:02.175Z,1.17
2022-11-15T23:13:30.993Z,1.23
2022-11-15T23:16:20.952Z,1.47
2022-11-15T23:18:48.852Z,1.20
2022-11-15T23:21:37.647Z,1.20
2022-11-15T23:24:06.440Z,1.00
2022-11-15T23:26:34.312Z,1.50
2022-11-15T23:29:02.228Z,1.23
2022-11-15T23:31:48.930Z,1.27
2022-11-15T23:34:22.354Z,1.37
2022-11-15T23:36:50.453Z,1.00
2022-11-15T23:39:19.844Z,1.00
2022-11-15T23:41:47.699Z,1.40
2022-11-15T23:44:15.581Z,1.00
2022-11-15T23:46:43.476Z,1.00
2022-11-15T23:49:11.350Z,1.03
2022-11-15T23:51:39.314Z,1.40
2022-11-15T23:54:07.562Z,1.40
2022-11-15T23:56:36.799Z,1.70
2022-11-15T23:59:05.151Z,1.50
